Terminal Aerodrome Forecast
Issued by NWS Portland, OR

Home | Current Version | Previous Version | Text Only | Print | Product List | Glossary On
Versions: 1 2 3 4 5 6 7 8 9 10 11 12 13 14 15 16 17 18 19
000
FTUS46 KPQR 270211 AAA
TAFAST
TAF AMD
KAST 270211Z 2702/2724 32011KT P6SM BKN014
     FM270800 31005KT P6SM OVC015
     FM272000 31012KT P6SM SCT020=

USA.gov is the U.S. government's official web portal to all federal, state and local government web resources and services.